createdAt,value
2023-01-27T00:01:33.847Z,0.30
2023-01-27T00:04:02.707Z,0.40
2023-01-27T00:06:31.060Z,0.80
2023-01-27T00:08:59.353Z,1.07
2023-01-27T00:11:46.917Z,0.33
2023-01-27T00:14:15.225Z,0.83
2023-01-27T00:16:43.593Z,0.47
2023-01-27T00:19:11.953Z,0.30
2023-01-27T00:21:58.045Z,0.60
2023-01-27T00:24:38.379Z,0.40
2023-01-27T00:27:10.276Z,1.50
2023-01-27T00:29:38.927Z,0.50
2023-01-27T00:32:25.077Z,0.37
2023-01-27T00:34:53.477Z,0.33
2023-01-27T00:37:21.879Z,1.50
2023-01-27T00:39:50.158Z,0.50
2023-01-27T00:42:19.969Z,1.90
2023-01-27T00:45:02.132Z,1.27
2023-01-27T00:47:30.476Z,0.20
2023-01-27T00:49:58.818Z,0.63
2023-01-27T00:52:27.278Z,0.57
2023-01-27T00:54:55.688Z,0.40
2023-01-27T00:57:25.902Z,0.30
2023-01-27T00:59:54.323Z,0.20
2023-01-27T01:02:22.619Z,0.60
2023-01-27T01:04:51.058Z,0.70
2023-01-27T01:07:19.424Z,0.47
2023-01-27T01:09:47.801Z,2.47
2023-01-27T01:12:16.156Z,0.30
2023-01-27T01:14:45.895Z,1.03
2023-01-27T01:17:14.283Z,0.40
2023-01-27T01:19:42.693Z,0.30
2023-01-27T01:22:10.989Z,0.50
2023-01-27T01:24:39.329Z,0.43
2023-01-27T01:27:07.626Z,1.27
2023-01-27T01:29:36.054Z,0.90
2023-01-27T01:32:09.969Z,0.30
2023-01-27T01:34:38.529Z,0.67
2023-01-27T01:37:06.867Z,0.60
2023-01-27T01:39:35.262Z,0.77
2023-01-27T01:42:03.614Z,0.30
2023-01-27T01:44:33.409Z,0.20
2023-01-27T01:47:02.501Z,0.87
2023-01-27T01:49:39.964Z,0.40
2023-01-27T01:52:12.555Z,0.77
2023-01-27T01:54:44.588Z,0.60
2023-01-27T01:57:17.463Z,0.43
2023-01-27T01:59:50.326Z,1.43
2023-01-27T02:02:22.703Z,1.03
2023-01-27T02:04:58.441Z,0.50
2023-01-27T02:07:32.089Z,0.70
2023-01-27T02:10:02.129Z,0.60
2023-01-27T02:12:30.443Z,0.30
2023-01-27T02:14:59.325Z,0.53
2023-01-27T02:17:27.636Z,0.60
2023-01-27T02:20:06.355Z,0.40
2023-01-27T02:22:40.958Z,0.40
2023-01-27T02:25:20.304Z,1.57
2023-01-27T02:27:50.003Z,0.40
2023-01-27T02:30:18.740Z,0.67
2023-01-27T02:32:47.134Z,0.50
2023-01-27T02:35:21.626Z,1.07
2023-01-27T02:37:51.899Z,0.80
2023-01-27T02:40:21.281Z,0.93
2023-01-27T02:42:51.153Z,3.03
2023-01-27T02:45:19.446Z,0.80
2023-01-27T02:47:47.940Z,0.80
2023-01-27T02:50:16.496Z,0.80
2023-01-27T02:52:45.111Z,1.23
2023-01-27T02:55:13.790Z,0.70
2023-01-27T02:57:42.327Z,0.67
2023-01-27T03:00:14.356Z,0.50
2023-01-27T03:02:42.686Z,0.60
2023-01-27T03:05:11.797Z,0.50
2023-01-27T03:07:40.296Z,0.63
2023-01-27T03:10:09.929Z,0.57
2023-01-27T03:12:38.365Z,1.33
2023-01-27T03:15:25.395Z,0.60
2023-01-27T03:18:26.380Z,0.43
2023-01-27T03:21:02.608Z,0.57
2023-01-27T03:23:34.297Z,0.87
2023-01-27T03:26:06.968Z,0.80
2023-01-27T03:28:35.592Z,1.00
2023-01-27T03:31:06.252Z,0.50
2023-01-27T03:33:36.624Z,0.60
2023-01-27T03:36:23.685Z,0.80
2023-01-27T03:39:09.493Z,0.90
2023-01-27T03:41:55.114Z,0.70
2023-01-27T03:44:40.908Z,0.40
2023-01-27T03:47:09.177Z,0.97
2023-01-27T03:49:39.097Z,0.60
2023-01-27T03:52:07.531Z,0.67
2023-01-27T03:54:35.992Z,0.70
2023-01-27T03:57:06.405Z,0.47
2023-01-27T03:59:35.245Z,0.50
2023-01-27T04:02:22.080Z,0.77
2023-01-27T04:05:09.463Z,1.27
2023-01-27T04:07:38.118Z,0.70
2023-01-27T04:10:07.265Z,2.20
2023-01-27T04:12:34.595Z,0.80
2023-01-27T04:15:03.188Z,1.00
2023-01-27T04:17:39.162Z,0.50
2023-01-27T04:20:10.420Z,1.17
2023-01-27T04:22:38.760Z,0.80
2023-01-27T04:25:08.619Z,1.10
2023-01-27T04:27:37.124Z,2.17
2023-01-27T04:30:06.535Z,1.30
2023-01-27T04:32:35.104Z,1.30
2023-01-27T04:35:03.603Z,0.83
2023-01-27T04:37:34.507Z,0.77
2023-01-27T04:40:02.904Z,1.20
2023-01-27T04:42:31.262Z,0.80
2023-01-27T04:44:59.668Z,1.33
2023-01-27T04:47:28.809Z,0.97
2023-01-27T04:49:57.196Z,1.00
2023-01-27T04:52:25.589Z,1.17
2023-01-27T04:54:55.291Z,1.30
2023-01-27T04:57:23.636Z,1.47
2023-01-27T04:59:52.137Z,1.53
2023-01-27T05:02:20.485Z,1.80
2023-01-27T05:04:49.208Z,1.80
2023-01-27T05:07:17.639Z,1.33
2023-01-27T05:09:45.938Z,2.37
2023-01-27T05:12:15.920Z,1.27
2023-01-27T05:14:44.324Z,2.00
2023-01-27T05:17:12.829Z,1.60
2023-01-27T05:19:41.106Z,1.30
2023-01-27T05:22:11.323Z,1.77
2023-01-27T05:24:39.753Z,2.43
2023-01-27T05:27:08.219Z,1.40
2023-01-27T05:29:37.940Z,1.33
2023-01-27T05:32:06.729Z,2.07
2023-01-27T05:34:36.291Z,2.70
2023-01-27T05:37:04.685Z,1.80
2023-01-27T05:39:33.002Z,2.03
2023-01-27T05:42:02.272Z,2.97
2023-01-27T05:44:30.716Z,1.50
2023-01-27T05:47:00.899Z,1.87
2023-01-27T05:49:29.386Z,3.17
2023-01-27T05:51:57.786Z,3.50
2023-01-27T05:54:26.125Z,2.83
2023-01-27T05:56:55.566Z,3.60
2023-01-27T05:59:24.933Z,4.33
2023-01-27T06:01:53.293Z,4.10
2023-01-27T06:04:23.259Z,4.27
2023-01-27T06:06:51.732Z,5.03
2023-01-27T06:09:20.132Z,5.23
2023-01-27T06:11:48.578Z,6.30
2023-01-27T06:14:16.943Z,6.33
2023-01-27T06:16:47.316Z,5.13
2023-01-27T06:19:15.938Z,6.83
2023-01-27T06:21:45.650Z,6.07
2023-01-27T06:24:14.147Z,7.00
2023-01-27T06:26:42.650Z,6.20
2023-01-27T06:29:11.004Z,4.37
2023-01-27T06:31:39.816Z,6.33
2023-01-27T06:36:37.212Z,6.27
2023-01-27T06:39:06.999Z,6.53
2023-01-27T06:41:35.401Z,7.73
2023-01-27T06:44:03.815Z,8.27
2023-01-27T06:46:32.285Z,7.80
2023-01-27T06:49:00.807Z,8.37
2023-01-27T06:51:29.176Z,9.03
2023-01-27T06:53:57.587Z,9.60
2023-01-27T06:56:27.273Z,7.70
2023-01-27T06:58:55.545Z,7.27
2023-01-27T07:01:23.960Z,8.60
2023-01-27T07:03:52.312Z,8.53
2023-01-27T07:06:20.738Z,8.23
2023-01-27T07:08:51.156Z,8.33
2023-01-27T07:11:19.742Z,8.87
2023-01-27T07:13:51.027Z,6.93
2023-01-27T07:16:19.652Z,7.67
2023-01-27T07:18:48.049Z,8.37
2023-01-27T07:21:16.393Z,9.07
2023-01-27T07:23:44.790Z,9.40
2023-01-27T07:26:24.587Z,11.67
2023-01-27T07:28:56.464Z,9.33
2023-01-27T07:31:25.067Z,9.70
2023-01-27T07:33:54.251Z,11.67
2023-01-27T07:36:22.706Z,12.23
2023-01-27T07:38:52.488Z,12.73
2023-01-27T07:41:22.975Z,9.73
2023-01-27T07:43:52.431Z,9.27
2023-01-27T07:46:22.544Z,10.93
2023-01-27T07:48:50.919Z,11.43
2023-01-27T07:51:19.343Z,11.50
2023-01-27T07:53:47.935Z,10.73
2023-01-27T07:56:16.273Z,12.00
2023-01-27T07:58:44.901Z,12.03
2023-01-27T08:01:14.391Z,10.20
2023-01-27T08:03:44.162Z,8.33
2023-01-27T08:06:14.062Z,8.07
2023-01-27T08:08:42.657Z,8.30
2023-01-27T08:11:14.062Z,8.60
2023-01-27T08:13:43.311Z,8.70
2023-01-27T08:16:14.809Z,8.27
2023-01-27T08:19:04.576Z,6.60
2023-01-27T08:21:33.636Z,8.10
2023-01-27T08:24:02.833Z,7.13
2023-01-27T08:26:31.190Z,7.00
2023-01-27T08:28:59.690Z,5.80
2023-01-27T08:31:29.071Z,8.13
2023-01-27T08:33:57.503Z,7.63
2023-01-27T08:36:27.445Z,7.50
2023-01-27T08:38:57.124Z,17.60
2023-01-27T08:41:27.608Z,7.33
2023-01-27T08:43:56.449Z,6.17
2023-01-27T08:46:25.224Z,8.90
2023-01-27T08:48:55.306Z,7.57
2023-01-27T08:51:23.928Z,7.37
2023-01-27T08:53:53.781Z,6.77
2023-01-27T08:56:22.241Z,7.20
2023-01-27T08:58:52.357Z,7.00
2023-01-27T09:01:22.058Z,6.87
2023-01-27T09:03:50.565Z,6.47
2023-01-27T09:06:21.804Z,6.87
2023-01-27T09:09:11.196Z,8.80
2023-01-27T09:11:43.568Z,7.17
2023-01-27T09:14:12.541Z,7.27
2023-01-27T09:16:41.221Z,6.67
2023-01-27T09:19:09.844Z,5.20
2023-01-27T09:21:38.156Z,6.60
2023-01-27T09:24:06.831Z,5.37
2023-01-27T09:26:35.305Z,5.60
2023-01-27T09:29:05.116Z,6.33
2023-01-27T09:31:33.640Z,4.60
2023-01-27T09:34:02.127Z,4.63
2023-01-27T09:36:35.185Z,4.67
2023-01-27T09:39:07.649Z,4.70
2023-01-27T09:42:05.300Z,4.57
2023-01-27T09:45:03.309Z,2.50
2023-01-27T09:47:49.016Z,2.53
2023-01-27T09:50:44.607Z,4.07
2023-01-27T09:53:47.679Z,4.03
2023-01-27T09:56:23.530Z,3.87
2023-01-27T09:59:08.294Z,2.70
2023-01-27T10:01:49.807Z,3.47
2023-01-27T10:04:41.047Z,3.07
2023-01-27T10:07:35.942Z,2.70
2023-01-27T10:10:26.732Z,1.93
2023-01-27T10:13:08.668Z,2.77
2023-01-27T10:15:51.076Z,2.17
2023-01-27T10:18:34.060Z,2.20
2023-01-27T10:21:10.211Z,1.97
2023-01-27T10:23:47.035Z,2.43
2023-01-27T10:26:24.885Z,1.47
2023-01-27T10:28:59.136Z,1.10
2023-01-27T10:31:34.355Z,1.57
2023-01-27T10:36:47.447Z,1.83
2023-01-27T12:46:21.733Z,0.77
2023-01-27T12:48:52.309Z,0.70
2023-01-27T12:51:22.639Z,0.77
2023-01-27T12:53:52.189Z,0.93
2023-01-27T12:56:23.782Z,0.70
2023-01-27T12:58:59.292Z,1.00
2023-01-27T13:01:31.932Z,1.00
2023-01-27T13:04:04.416Z,0.60
2023-01-27T13:06:42.079Z,0.70
2023-01-27T13:09:28.661Z,0.60
2023-01-27T13:11:59.516Z,0.77
2023-01-27T13:14:31.715Z,1.00
2023-01-27T13:17:03.108Z,0.70
2023-01-27T13:19:42.133Z,0.57
2023-01-27T13:22:17.479Z,0.87
2023-01-27T13:24:47.561Z,0.53
2023-01-27T13:27:18.486Z,0.77
2023-01-27T13:29:56.125Z,0.70
2023-01-27T13:32:28.813Z,0.73
2023-01-27T13:35:06.607Z,0.50
2023-01-27T13:37:42.360Z,0.77
2023-01-27T13:40:19.543Z,0.60
2023-01-27T13:42:51.386Z,0.80
2023-01-27T13:45:23.723Z,0.90
2023-01-27T13:47:58.152Z,1.00
2023-01-27T13:50:31.817Z,1.17
2023-01-27T13:53:02.436Z,0.80
2023-01-27T13:55:48.521Z,0.70
2023-01-27T13:58:29.407Z,0.70
2023-01-27T14:01:05.610Z,0.53
2023-01-27T14:03:58.435Z,0.60
2023-01-27T14:06:39.006Z,1.27
2023-01-27T14:09:18.935Z,0.80
2023-01-27T14:11:53.336Z,0.67
2023-01-27T14:14:57.357Z,0.60
2023-01-27T14:17:37.628Z,0.40
2023-01-27T14:20:31.559Z,0.70
2023-01-27T14:23:13.079Z,0.80
2023-01-27T14:25:50.746Z,0.87
2023-01-27T14:28:29.786Z,0.70
2023-01-27T14:31:04.877Z,0.70
2023-01-27T14:33:48.084Z,0.90
2023-01-27T14:36:22.962Z,1.00
2023-01-27T14:39:03.782Z,1.00
2023-01-27T14:41:41.388Z,1.43
2023-01-27T14:44:18.232Z,0.70
2023-01-27T14:47:03.722Z,0.70
2023-01-27T14:49:49.175Z,0.60
2023-01-27T14:52:31.821Z,0.83
2023-01-27T14:55:17.723Z,1.30
2023-01-27T14:57:56.801Z,1.17
2023-01-27T15:00:37.967Z,1.20
2023-01-27T15:03:40.428Z,1.30
2023-01-27T15:06:16.397Z,1.40
2023-01-27T15:08:55.233Z,1.40
2023-01-27T15:11:51.175Z,1.57
2023-01-27T15:14:43.558Z,2.07
2023-01-27T15:17:27.715Z,1.53
2023-01-27T15:20:25.866Z,3.40
2023-01-27T15:23:21.345Z,3.07
2023-01-27T15:25:54.154Z,2.00
2023-01-27T15:28:31.416Z,1.53
2023-01-27T15:31:23.890Z,1.20
2023-01-27T15:33:57.830Z,0.77
2023-01-27T15:36:37.186Z,1.63
2023-01-27T15:39:29.020Z,1.60
2023-01-27T15:42:13.771Z,1.73
2023-01-27T15:44:59.968Z,1.43
2023-01-27T15:47:30.453Z,1.57
2023-01-27T15:50:08.374Z,1.80
2023-01-27T15:52:43.526Z,1.30
2023-01-27T15:55:26.481Z,1.60
2023-01-27T15:58:12.704Z,1.60
2023-01-27T16:00:43.849Z,1.30
2023-01-27T16:03:23.211Z,1.30
2023-01-27T16:05:54.184Z,1.80
2023-01-27T16:08:22.609Z,1.40
2023-01-27T16:10:51.041Z,1.33
2023-01-27T16:13:29.457Z,1.10
2023-01-27T16:16:32.291Z,1.10
2023-01-27T16:19:17.623Z,1.60
2023-01-27T16:21:49.590Z,1.00
2023-01-27T16:24:27.714Z,1.17
2023-01-27T16:27:00.963Z,1.60
2023-01-27T16:29:38.877Z,2.47
2023-01-27T16:32:14.428Z,2.87
2023-01-27T16:34:47.523Z,2.57
2023-01-27T16:37:25.018Z,2.30
2023-01-27T16:40:00.740Z,2.67
2023-01-27T16:42:33.690Z,2.97
2023-01-27T16:45:10.253Z,3.30
2023-01-27T16:47:44.345Z,3.50
2023-01-27T16:50:35.029Z,4.30
2023-01-27T16:53:04.496Z,4.23
2023-01-27T16:55:33.016Z,4.97
2023-01-27T16:58:05.271Z,2.90
2023-01-27T17:00:37.246Z,3.40
2023-01-27T17:03:12.242Z,3.03
2023-01-27T17:05:42.789Z,2.30
2023-01-27T17:08:24.128Z,2.67
2023-01-27T17:10:55.457Z,2.67
2023-01-27T17:13:31.977Z,2.70
2023-01-27T17:16:04.631Z,2.10
2023-01-27T17:18:51.824Z,2.50
2023-01-27T17:21:34.237Z,2.07
2023-01-27T17:24:07.333Z,2.23
2023-01-27T17:26:37.027Z,3.07
2023-01-27T17:29:05.808Z,3.30
2023-01-27T17:31:38.974Z,3.30
2023-01-27T17:34:07.609Z,3.27
2023-01-27T17:36:36.002Z,3.50
2023-01-27T17:39:04.497Z,3.70
2023-01-27T17:41:38.113Z,3.53
2023-01-27T17:44:13.355Z,3.90
2023-01-27T17:46:43.569Z,3.93
2023-01-27T17:49:16.436Z,5.13
2023-01-27T17:51:48.269Z,5.47
2023-01-27T18:08:19.583Z,3.90
2023-01-27T18:10:48.283Z,3.20
2023-01-27T18:13:38.235Z,3.47
2023-01-27T18:16:18.820Z,3.93
2023-01-27T18:18:48.309Z,5.27
2023-01-27T18:21:19.699Z,3.97
2023-01-27T18:23:51.365Z,4.40
2023-01-27T18:26:24.777Z,5.03
2023-01-27T18:28:57.750Z,6.07
2023-01-27T18:31:29.858Z,5.33
2023-01-27T18:34:00.491Z,4.07
2023-01-27T18:36:35.634Z,5.30
2023-01-27T18:39:27.627Z,5.10
2023-01-27T18:41:56.233Z,4.57
2023-01-27T18:44:44.445Z,4.30
2023-01-27T18:47:34.818Z,3.97
2023-01-27T18:50:19.492Z,5.97
2023-01-27T18:52:48.228Z,5.77
2023-01-27T18:55:21.228Z,4.07
2023-01-27T18:57:51.294Z,4.00
2023-01-27T19:00:21.485Z,3.83
2023-01-27T19:02:52.207Z,3.63
2023-01-27T19:05:22.985Z,4.20
2023-01-27T19:07:51.634Z,3.57
2023-01-27T19:10:25.016Z,3.13
2023-01-27T19:12:53.501Z,3.23
2023-01-27T19:15:24.104Z,3.27
2023-01-27T19:17:55.573Z,3.70
2023-01-27T19:20:26.873Z,3.70
2023-01-27T19:22:57.038Z,3.70
2023-01-27T19:25:29.259Z,4.00
2023-01-27T19:28:04.048Z,5.97
2023-01-27T19:30:36.241Z,5.60
2023-01-27T19:33:07.559Z,5.43
2023-01-27T19:35:36.801Z,8.13
2023-01-27T19:38:06.264Z,8.63
2023-01-27T19:40:36.081Z,9.10
2023-01-27T19:43:05.861Z,8.83
2023-01-27T19:45:34.456Z,4.93
2023-01-27T19:48:03.531Z,3.17
2023-01-27T19:50:32.783Z,3.67
2023-01-27T19:53:02.985Z,3.30
2023-01-27T19:55:31.522Z,3.37
2023-01-27T19:58:03.357Z,4.07
2023-01-27T20:00:34.178Z,3.93
2023-01-27T20:03:04.021Z,3.77
2023-01-27T20:05:35.538Z,4.00
2023-01-27T20:08:05.371Z,4.47
2023-01-27T20:10:34.481Z,4.87
2023-01-27T20:13:07.757Z,4.93
2023-01-27T20:15:40.011Z,4.90
2023-01-27T20:18:09.129Z,5.97
2023-01-27T20:20:38.616Z,6.20
2023-01-27T20:23:07.462Z,5.90
2023-01-27T20:25:36.159Z,5.37
2023-01-27T20:28:06.127Z,6.00
2023-01-27T20:30:35.429Z,5.50
2023-01-27T20:33:05.133Z,6.20
2023-01-27T20:35:33.679Z,5.77
2023-01-27T20:38:03.755Z,6.53
2023-01-27T20:40:32.186Z,6.20
2023-01-27T20:43:03.164Z,5.93
2023-01-27T20:45:33.727Z,6.77
2023-01-27T20:48:02.338Z,7.07
2023-01-27T20:50:30.741Z,7.17
2023-01-27T20:52:59.278Z,7.43
2023-01-27T20:55:31.402Z,6.63
2023-01-27T20:58:02.045Z,7.03
2023-01-27T21:00:30.349Z,7.83
2023-01-27T21:03:04.137Z,7.60
2023-01-27T21:05:34.420Z,8.07
2023-01-27T21:08:03.607Z,7.80
2023-01-27T21:10:32.216Z,6.70
2023-01-27T21:13:00.819Z,6.67
2023-01-27T21:15:29.126Z,7.27
2023-01-27T21:17:57.755Z,7.30
2023-01-27T21:20:28.673Z,6.73
2023-01-27T21:22:57.096Z,7.30
2023-01-27T21:25:25.848Z,8.00
2023-01-27T21:27:54.333Z,8.00
2023-01-27T21:30:25.777Z,7.67
2023-01-27T21:32:54.206Z,8.70
2023-01-27T21:35:22.787Z,9.03
2023-01-27T21:37:53.272Z,8.53
2023-01-27T21:40:22.528Z,8.87
2023-01-27T21:43:08.570Z,7.90
2023-01-27T21:45:36.874Z,8.23
2023-01-27T21:48:05.489Z,7.23
2023-01-27T21:50:33.966Z,8.13
2023-01-27T21:53:10.410Z,8.33
2023-01-27T21:55:38.771Z,8.07
2023-01-27T21:58:07.101Z,7.77
2023-01-27T22:00:35.539Z,7.80
2023-01-27T22:03:05.308Z,7.83
2023-01-27T22:05:35.202Z,7.57
2023-01-27T22:08:07.221Z,9.20
2023-01-27T22:10:36.465Z,15.37
2023-01-27T22:13:05.672Z,20.50
2023-01-27T22:15:34.557Z,18.47
2023-01-27T22:18:03.262Z,11.67
2023-01-27T22:20:31.686Z,15.17
2023-01-27T22:23:00.118Z,24.60
2023-01-27T22:25:29.861Z,17.10
2023-01-27T22:27:58.193Z,10.97
2023-01-27T22:30:26.594Z,24.20
2023-01-27T22:32:55.142Z,150.53
2023-01-27T22:35:23.848Z,50.07
2023-01-27T22:37:53.171Z,20.00
2023-01-27T22:40:21.676Z,20.70
2023-01-27T22:42:51.997Z,11.57
2023-01-27T22:45:20.242Z,16.07
2023-01-27T22:47:49.572Z,64.00
2023-01-27T22:50:18.380Z,39.73
2023-01-27T22:52:46.863Z,20.20
2023-01-27T22:55:15.864Z,30.43
2023-01-27T22:57:45.946Z,47.20
2023-01-27T23:00:16.638Z,70.20
2023-01-27T23:02:45.058Z,65.47
2023-01-27T23:05:13.915Z,25.30
2023-01-27T23:07:42.400Z,15.43
2023-01-27T23:10:11.775Z,10.13
2023-01-27T23:12:40.184Z,9.47
2023-01-27T23:15:09.547Z,9.13
2023-01-27T23:17:39.488Z,12.87
2023-01-27T23:20:09.520Z,13.43
2023-01-27T23:22:37.931Z,14.47
2023-01-27T23:25:09.395Z,14.63
2023-01-27T23:27:37.788Z,11.47
2023-01-27T23:30:09.073Z,10.87
2023-01-27T23:32:39.491Z,13.03
2023-01-27T23:35:08.512Z,18.80
2023-01-27T23:37:38.940Z,12.27
2023-01-27T23:40:08.798Z,10.67
2023-01-27T23:42:37.249Z,10.40
2023-01-27T23:45:06.262Z,10.33
2023-01-27T23:47:34.592Z,11.17
2023-01-27T23:50:05.423Z,8.80
2023-01-27T23:52:35.164Z,9.27
2023-01-27T23:55:03.799Z,9.57
2023-01-27T23:57:32.248Z,10.93
